Time;durP1;ratioP1;P1;durP2;ratioP2;P2;SDS_P1;SDS_P2;PMS_P1;PMS_P2;Temp;Humidity;BMP_temperature;BMP_pressure;BME280_temperature;BME280_humidity;BME280_pressure;Samples;Min_cycle;Max_cycle;Signal;HPM_P1;HPM_P2
2023/08/21 00:01:58;;;;;;;2.53;2.20;;;;;;;16.92;90.31;102287.50;10498867;28;20048;-66
2023/08/21 00:06:59;;;;;;;2.60;1.90;;;;;;;16.96;91.16;102292.34;10480964;28;20108;-65
2023/08/21 00:11:59;;;;;;;10.30;2.08;;;;;;;16.98;91.74;102294.88;10496204;28;20053;-66
2023/08/21 00:17:01;;;;;;;2.30;1.85;;;;;;;16.98;92.09;102291.31;10497646;28;20055;-65
2023/08/21 00:22:01;;;;;;;2.85;2.65;;;;;;;16.91;91.95;102286.66;10496956;28;20048;-65
2023/08/21 00:27:03;;;;;;;4.45;2.47;;;;;;;16.88;91.75;102286.22;10497560;28;20056;-65
2023/08/21 00:32:04;;;;;;;4.88;2.70;;;;;;;16.83;91.45;102275.06;10495374;28;20064;-65
2023/08/21 00:37:04;;;;;;;2.90;2.38;;;;;;;16.82;92.09;102276.94;10494866;28;20114;-65
2023/08/21 00:42:07;;;;;;;11.73;3.55;;;;;;;16.91;92.38;102274.84;10497324;28;20123;-65
2023/08/21 00:47:07;;;;;;;4.60;3.03;;;;;;;16.98;94.22;102275.75;10498135;28;20028;-65
2023/08/21 00:52:09;;;;;;;4.13;2.15;;;;;;;17.00;94.22;102270.88;10480398;28;20153;-65
2023/08/21 00:57:10;;;;;;;8.02;3.25;;;;;;;16.96;93.05;102278.66;10494326;28;20085;-66
2023/08/21 01:02:11;;;;;;;10.30;3.85;;;;;;;16.98;93.37;102269.44;10494649;28;20036;-65
2023/08/21 01:07:12;;;;;;;5.47;2.90;;;;;;;17.00;93.34;102268.16;10493847;28;20166;-65
2023/08/21 01:12:25;;;;;;;10.98;3.95;;;;;;;17.06;93.51;102271.94;10493154;28;20155;-66
2023/08/21 01:17:26;;;;;;;3.85;3.15;;;;;;;17.14;93.64;102280.00;10510443;28;20040;-65
2023/08/21 01:22:27;;;;;;;9.10;2.85;;;;;;;17.12;93.62;102280.19;10510509;28;20526;-65
2023/08/21 01:27:28;;;;;;;5.47;2.80;;;;;;;17.13;94.19;102287.34;10494232;28;20040;-65
2023/08/21 01:33:06;;;;;;;2.85;2.13;;;;;;;17.27;95.02;102285.47;10494750;28;20028;-65
2023/08/21 01:38:06;;;;;;;6.03;2.65;;;;;;;17.24;94.18;102288.63;10493178;28;20114;-65
2023/08/21 01:43:07;;;;;;;4.65;2.08;;;;;;;17.09;94.63;102279.75;10493910;28;20037;-66
2023/08/21 01:48:07;;;;;;;2.50;2.28;;;;;;;17.01;95.06;102285.44;10493695;28;20468;-65
2023/08/21 01:53:07;;;;;;;3.80;2.53;;;;;;;17.03;95.73;102286.06;10494776;28;20176;-66
2023/08/21 01:58:08;;;;;;;10.35;3.25;;;;;;;16.99;95.50;102284.78;10492792;28;20040;-65
2023/08/21 02:03:08;;;;;;;8.00;3.10;;;;;;;16.98;96.29;102288.59;10495100;28;20042;-65
2023/08/21 02:08:12;;;;;;;7.95;3.53;;;;;;;16.96;96.82;102286.88;10492602;28;20060;-65
2023/08/21 02:13:12;;;;;;;4.90;2.85;;;;;;;16.94;96.34;102289.00;10509957;28;20131;-66
2023/08/21 02:18:13;;;;;;;2.33;2.17;;;;;;;16.88;96.14;102284.34;10476104;28;20032;-65
2023/08/21 02:23:13;;;;;;;5.70;2.83;;;;;;;16.81;95.88;102293.56;10496708;28;20068;-65
2023/08/21 02:28:14;;;;;;;3.33;2.80;;;;;;;16.70;96.71;102284.88;10501643;28;20131;-66
2023/08/21 02:33:14;;;;;;;2.95;2.75;;;;;;;16.64;96.51;102277.47;10501472;28;20032;-65
2023/08/21 02:38:15;;;;;;;3.33;2.80;;;;;;;16.59;96.75;102288.19;10500865;28;20059;-66
2023/08/21 02:43:16;;;;;;;4.35;2.53;;;;;;;16.55;97.08;102286.06;10501393;28;20389;-66
2023/08/21 02:48:17;;;;;;;6.68;2.72;;;;;;;16.51;97.12;102285.63;10500379;28;20539;-66
2023/08/21 02:53:21;;;;;;;6.82;2.83;;;;;;;16.43;97.67;102283.03;10498638;28;20118;-68
2023/08/21 02:58:21;;;;;;;22.10;4.22;;;;;;;16.45;97.54;102289.16;10500774;28;20031;-68
2023/08/21 03:03:22;;;;;;;12.82;2.78;;;;;;;16.39;97.77;102279.03;10501021;28;20490;-68
2023/08/21 03:08:23;;;;;;;7.97;3.72;;;;;;;16.40;98.35;102281.59;10500611;28;20597;-68
2023/08/21 03:13:26;;;;;;;4.30;3.33;;;;;;;16.41;98.28;102266.03;10498960;28;20056;-68
2023/08/21 03:18:32;;;;;;;3.65;3.33;;;;;;;16.35;98.19;102270.41;10500817;28;20443;-68
2023/08/21 03:23:32;;;;;;;6.47;3.57;;;;;;;16.28;98.43;102280.47;10500540;28;20332;-68
2023/08/21 03:28:33;;;;;;;5.30;3.60;;;;;;;16.25;98.49;102275.41;10482297;28;20123;-68
2023/08/21 03:33:34;;;;;;;4.85;3.08;;;;;;;16.23;98.87;102274.75;10498283;28;20032;-68
2023/08/21 03:38:38;;;;;;;4.05;3.65;;;;;;;16.16;98.99;102271.13;10481638;28;20415;-68
2023/08/21 03:43:45;;;;;;;3.10;2.50;;;;;;;16.13;98.97;102272.38;10497270;28;20071;-68
2023/08/21 03:48:45;;;;;;;;;;;;;;;16.03;99.30;102270.00;10498470;28;20028;-68
2023/08/21 03:53:49;;;;;;;5.47;3.17;;;;;;;16.00;99.44;102273.13;10498519;28;19913;-68
2023/08/21 03:58:50;;;;;;;9.85;3.80;;;;;;;16.00;99.59;102272.31;10496996;28;20036;-67
2023/08/21 04:03:53;;;;;;;10.07;3.10;;;;;;;15.98;100.00;102269.75;10498831;28;20042;-68
2023/08/21 04:08:54;;;;;;;4.43;3.47;;;;;;;16.08;100.00;102274.00;10498955;28;20040;-68
2023/08/21 04:13:55;;;;;;;3.45;3.15;;;;;;;16.23;100.00;102283.78;10496279;28;20048;-68
2023/08/21 04:18:59;;;;;;;3.13;2.88;;;;;;;16.23;100.00;102277.47;10497598;28;20466;-68
2023/08/21 04:24:00;;;;;;;4.97;2.97;;;;;;;16.22;100.00;102284.00;10497962;28;20037;-68
2023/08/21 04:29:03;;;;;;;6.25;3.20;;;;;;;16.19;100.00;102276.19;10496106;28;20425;-68
2023/08/21 04:34:04;;;;;;;4.25;3.45;;;;;;;16.14;100.00;102279.53;10498103;28;20103;-68
2023/08/21 04:39:05;;;;;;;3.35;2.88;;;;;;;16.13;100.00;102286.03;10497408;28;20452;-70
2023/08/21 04:44:11;;;;;;;13.88;4.28;;;;;;;16.24;100.00;102285.50;10497425;28;20476;-71
2023/08/21 04:49:14;;;;;;;5.82;3.33;;;;;;;16.27;100.00;102286.97;10495720;28;20036;-71
2023/08/21 04:54:15;;;;;;;5.55;3.83;;;;;;;16.29;100.00;102295.81;10497125;28;20074;-71
2023/08/21 04:59:16;;;;;;;13.95;4.05;;;;;;;16.35;100.00;102292.28;10478745;28;20483;-68
2023/08/21 05:04:19;;;;;;;3.65;2.75;;;;;;;16.40;100.00;102289.78;10495683;28;20357;-69
2023/08/21 05:09:20;;;;;;;7.50;3.22;;;;;;;16.46;100.00;102299.03;10511450;28;20059;-69
2023/08/21 05:14:22;;;;;;;6.47;4.30;;;;;;;16.58;100.00;102294.69;10494267;28;20128;-69
2023/08/21 05:19:22;;;;;;;6.78;3.85;;;;;;;16.69;100.00;102304.22;10495590;28;20124;-70
2023/08/21 05:24:23;;;;;;;11.85;4.93;;;;;;;16.79;100.00;102304.72;10495013;28;20028;-69
2023/08/21 05:29:24;;;;;;;8.88;3.28;;;;;;;16.99;100.00;102301.22;10497000;28;20064;-69
2023/08/21 05:34:28;;;;;;;5.65;3.42;;;;;;;17.13;100.00;102300.19;10496099;28;20444;-69
2023/08/21 05:39:32;;;;;;;7.47;4.50;;;;;;;17.27;100.00;102301.06;10494721;28;20028;-69
2023/08/21 05:44:33;;;;;;;5.45;2.92;;;;;;;17.61;100.00;102309.13;10478269;28;20039;-69
2023/08/21 05:49:33;;;;;;;5.93;4.15;;;;;;;19.20;100.00;102309.75;10494852;28;20032;-69
2023/08/21 05:54:34;;;;;;;17.90;4.20;;;;;;;20.42;100.00;102296.44;10494960;28;20158;-69
2023/08/21 05:59:35;;;;;;;13.98;4.63;;;;;;;21.66;100.00;102299.63;10499767;28;20032;-69
2023/08/21 06:04:40;;;;;;;4.43;2.95;;;;;;;22.75;99.78;102302.69;10502229;28;20025;-69
2023/08/21 06:09:40;;;;;;;5.25;3.38;;;;;;;23.18;99.75;102306.03;10501730;28;20056;-69
2023/08/21 06:14:41;;;;;;;9.23;3.88;;;;;;;23.34;100.00;102307.97;10502251;28;20051;-70
2023/08/21 06:19:42;;;;;;;8.30;3.80;;;;;;;23.53;100.00;102311.34;10502708;28;20040;-69
2023/08/21 06:24:43;;;;;;;13.38;3.72;;;;;;;24.00;100.00;102313.00;10483764;28;20091;-69
2023/08/21 06:29:47;;;;;;;10.50;2.60;;;;;;;24.34;100.00;102316.50;10484340;28;20036;-69
2023/08/21 06:35:40;;;;;;;24.88;3.60;;;;;;;24.54;99.70;102325.13;10502264;28;20441;-69
2023/08/21 06:40:41;;;;;;;9.07;4.25;;;;;;;25.10;97.65;102316.63;10479274;28;20044;-69
2023/08/21 06:45:41;;;;;;;10.43;3.92;;;;;;;25.69;95.26;102321.41;10499946;28;20036;-70
2023/08/21 06:51:02;;;;;;;7.10;2.78;;;;;;;25.95;94.44;102314.13;10518117;28;20119;-70
2023/08/21 06:56:02;;;;;;;5.93;4.22;;;;;;;26.25;93.70;102323.75;10501390;28;20036;-70
2023/08/21 07:01:03;;;;;;;12.07;3.92;;;;;;;26.51;92.58;102327.53;10483018;28;20048;-70
2023/08/21 07:06:04;;;;;;;8.68;4.03;;;;;;;26.89;92.03;102323.53;10500309;28;20127;-70
2023/08/21 07:11:09;;;;;;;7.43;4.32;;;;;;;27.24;89.69;102324.75;10500424;28;20033;-69
2023/08/21 07:16:10;;;;;;;8.57;3.47;;;;;;;27.43;86.46;102328.66;10500777;28;20106;-70
2023/08/21 07:21:11;;;;;;;7.90;4.05;;;;;;;27.77;83.81;102331.78;10500080;28;20105;-70
2023/08/21 07:26:18;;;;;;;5.85;3.50;;;;;;;28.12;83.53;102340.38;10499105;28;20029;-70
2023/08/21 07:31:19;;;;;;;4.82;3.83;;;;;;;28.28;81.52;102336.44;10498200;28;20040;-70
2023/08/21 07:36:23;;;;;;;9.90;3.70;;;;;;;28.88;80.98;102334.56;10499991;28;20035;-70
2023/08/21 07:41:45;;;;;;;6.03;3.75;;;;;;;29.33;78.99;102343.81;10499164;28;20040;-71
2023/08/21 07:46:50;;;;;;;9.60;3.20;;;;;;;29.58;78.92;102333.56;10498958;28;20127;-70
2023/08/21 07:51:51;;;;;;;15.00;3.60;;;;;;;29.96;76.07;102348.59;10498962;28;20341;-70
2023/08/21 07:56:52;;;;;;;3.35;2.53;;;;;;;30.13;74.04;102348.19;10497902;28;20040;-70
2023/08/21 08:01:53;;;;;;;4.40;3.60;;;;;;;30.18;74.08;102350.06;10497130;28;20119;-70
2023/08/21 08:06:54;;;;;;;3.30;2.30;;;;;;;30.61;73.83;102344.59;10498331;28;20028;-70
2023/08/21 08:11:55;;;;;;;4.78;2.67;;;;;;;30.09;73.25;102347.13;10513795;28;20182;-70
2023/08/21 08:16:56;;;;;;;6.28;3.45;;;;;;;30.40;70.65;102349.59;10497439;28;20617;-70
2023/08/21 08:21:59;;;;;;;8.25;3.30;;;;;;;30.63;70.08;102356.31;10495667;28;20174;-70
2023/08/21 08:27:00;;;;;;;9.93;3.00;;;;;;;30.88;68.42;102347.63;10480551;28;20064;-70
2023/08/21 08:32:01;;;;;;;4.22;2.92;;;;;;;30.90;67.31;102338.94;10497421;28;20060;-70
2023/08/21 08:37:04;;;;;;;6.15;3.33;;;;;;;29.92;66.34;102343.91;10495285;28;20063;-70
2023/08/21 08:42:08;;;;;;;4.32;2.47;;;;;;;29.41;69.51;102333.97;10497549;28;20035;-70
2023/08/21 08:47:18;;;;;;;6.82;2.53;;;;;;;30.24;66.08;102343.34;10462857;28;20065;-70
2023/08/21 08:52:19;;;;;;;12.18;3.20;;;;;;;30.66;64.41;102345.34;10495681;28;20143;-70
2023/08/21 08:57:20;;;;;;;5.18;3.72;;;;;;;31.22;61.10;102341.00;10496780;28;20033;-70
2023/08/21 09:02:21;;;;;;;1.90;1.80;;;;;;;31.61;58.69;102348.25;10496026;28;20119;-70
2023/08/21 09:07:31;;;;;;;2.97;1.90;;;;;;;31.99;58.19;102349.00;10495678;28;20036;-70
2023/08/21 09:12:32;;;;;;;3.55;2.05;;;;;;;32.61;57.15;102348.66;10495750;28;20100;-70
2023/08/21 09:17:33;;;;;;;3.78;2.40;;;;;;;33.18;56.09;102345.47;10479253;28;20045;-70
2023/08/21 09:22:34;;;;;;;2.92;1.98;;;;;;;32.59;56.99;102348.16;10496294;28;20036;-70
2023/08/21 09:27:35;;;;;;;2.17;2.00;;;;;;;32.17;57.56;102345.31;10494886;28;20387;-70
2023/08/21 09:33:03;;;;;;;10.27;1.95;;;;;;;32.97;53.85;102339.50;10500364;28;20120;-70
2023/08/21 09:38:04;;;;;;;2.65;2.22;;;;;;;33.21;52.72;102334.44;10488169;28;20093;-70
2023/08/21 09:43:08;;;;;;;2.45;1.90;;;;;;;31.72;54.23;102333.75;10504507;28;20032;-70
2023/08/21 09:48:09;;;;;;;17.92;2.90;;;;;;;32.46;54.38;102333.00;10486534;28;20024;-70
2023/08/21 09:53:17;;;;;;;1.73;1.65;;;;;;;33.50;52.74;102328.41;10503062;28;20082;-70
2023/08/21 09:58:28;;;;;;;2.00;1.75;;;;;;;33.88;50.91;102333.59;10504386;28;20448;-70
2023/08/21 10:03:29;;;;;;;1.73;1.63;;;;;;;33.70;50.10;102332.69;10502875;28;20460;-70
2023/08/21 10:08:32;;;;;;;9.55;2.33;;;;;;;33.60;49.70;102334.91;10468869;28;20111;-70
2023/08/21 10:13:33;;;;;;;2.65;2.08;;;;;;;33.23;46.94;102337.75;10517887;28;20445;-70
2023/08/21 10:18:36;;;;;;;2.55;2.03;;;;;;;33.13;46.88;102337.19;10501224;28;20028;-70
2023/08/21 10:23:37;;;;;;;2.45;1.27;;;;;;;33.28;47.92;102333.97;10518333;28;20028;-70
2023/08/21 10:29:07;;;;;;;7.45;2.03;;;;;;;33.35;46.95;102323.16;10501944;28;20461;-70
2023/08/21 10:34:12;;;;;;;8.55;1.75;;;;;;;33.47;47.22;102326.22;10501787;28;20064;-70
2023/08/21 10:39:22;;;;;;;2.25;2.05;;;;;;;33.54;46.18;102321.03;10502178;28;20036;-70
2023/08/21 10:49:59;;;;;;;1.58;1.48;;;;;;;33.32;45.22;102315.38;10500249;28;20474;-70
2023/08/21 10:55:00;;;;;;;2.45;2.22;;;;;;;33.43;44.93;102310.31;10500975;28;20428;-70
2023/08/21 11:00:09;;;;;;;1.60;1.50;;;;;;;33.23;44.13;102312.50;10500121;28;20524;-70
2023/08/21 11:05:10;;;;;;;2.05;1.85;;;;;;;33.42;45.90;102315.13;10501257;28;20037;-70
2023/08/21 11:10:18;;;;;;;3.50;1.27;;;;;;;33.44;45.64;102326.88;10483312;28;20372;-70
2023/08/21 11:15:19;;;;;;;2.03;1.52;;;;;;;33.53;44.28;102318.50;10499330;28;20127;-70
2023/08/21 11:20:19;;;;;;;2.05;1.13;;;;;;;33.58;44.96;102317.56;10500116;28;20127;-70
2023/08/21 11:25:20;;;;;;;2.70;1.55;;;;;;;33.67;44.83;102318.47;10500451;28;20037;-70
2023/08/21 11:30:24;;;;;;;2.22;2.08;;;;;;;33.79;44.41;102324.28;10499516;28;20448;-70
2023/08/21 11:35:25;;;;;;;3.92;1.38;;;;;;;33.78;41.20;102317.03;10497734;28;20056;-70
2023/08/21 11:40:26;;;;;;;9.77;2.17;;;;;;;33.61;43.67;102314.13;10499062;28;20108;-70
2023/08/21 11:45:26;;;;;;;1.65;1.42;;;;;;;33.67;43.65;102312.84;10499435;28;20073;-70
2023/08/21 11:50:27;;;;;;;2.38;1.65;;;;;;;33.83;44.25;102314.09;10499018;28;20107;-70
2023/08/21 11:55:29;;;;;;;1.98;0.90;;;;;;;33.86;43.76;102312.63;10496900;28;20062;-70
2023/08/21 12:00:30;;;;;;;1.67;1.40;;;;;;;33.91;44.35;102304.88;10497817;28;20055;-70
2023/08/21 12:05:30;;;;;;;1.48;1.40;;;;;;;33.99;44.25;102298.47;10497918;28;20059;-70
2023/08/21 12:10:31;;;;;;;1.17;1.17;;;;;;;33.99;43.61;102298.47;10497828;28;20025;-70
2023/08/21 12:15:32;;;;;;;8.05;2.00;;;;;;;33.73;42.31;102297.50;10499273;28;20053;-70
2023/08/21 12:20:33;;;;;;;5.65;1.73;;;;;;;33.63;41.21;102301.41;10481231;28;20048;-70
2023/08/21 12:25:34;;;;;;;1.90;1.80;;;;;;;33.48;42.39;102299.78;10498137;28;20067;-70
2023/08/21 12:30:35;;;;;;;2.13;1.80;;;;;;;33.76;43.62;102308.94;10496626;28;20450;-70
2023/08/21 12:35:36;;;;;;;1.70;1.60;;;;;;;33.70;41.38;102312.22;10495704;28;20127;-70
2023/08/21 12:40:40;;;;;;;3.40;2.13;;;;;;;33.24;43.52;102311.34;10496298;28;20040;-70
2023/08/21 12:45:40;;;;;;;3.35;1.85;;;;;;;33.47;43.58;102315.00;10496167;28;20032;-70
2023/08/21 12:50:41;;;;;;;1.27;1.13;;;;;;;33.30;44.19;102307.25;10495166;28;20063;-70
2023/08/21 12:55:45;;;;;;;5.00;2.05;;;;;;;33.29;44.07;102301.97;10497755;28;20032;-70
2023/08/21 13:00:46;;;;;;;3.85;1.40;;;;;;;32.92;44.26;102298.31;10497076;28;20040;-70
2023/08/21 13:05:50;;;;;;;3.75;1.48;;;;;;;32.99;44.03;102287.50;10496030;28;20364;-70
2023/08/21 13:10:50;;;;;;;6.30;1.75;;;;;;;32.96;43.04;102292.91;10495696;28;20041;-70
2023/08/21 13:15:51;;;;;;;3.95;2.28;;;;;;;32.72;43.51;102287.56;10495038;28;20055;-70
2023/08/21 13:20:52;;;;;;;1.10;1.10;;;;;;;32.81;43.75;102285.69;10497538;28;20028;-70
2023/08/21 13:25:53;;;;;;;4.93;1.92;;;;;;;32.63;43.90;102290.28;10513995;28;20051;-70
2023/08/21 13:30:54;;;;;;;2.83;1.48;;;;;;;32.42;43.74;102290.69;10495062;28;20036;-70
2023/08/21 13:35:54;;;;;;;3.38;1.75;;;;;;;32.17;44.62;102292.03;10496017;28;20039;-70
2023/08/21 13:40:55;;;;;;;4.68;2.13;;;;;;;32.34;45.24;102284.97;10496374;28;20059;-70
2023/08/21 13:45:55;;;;;;;11.65;2.65;;;;;;;32.37;44.73;102289.97;10496500;28;20361;-70
2023/08/21 13:50:56;;;;;;;3.15;1.75;;;;;;;32.10;45.01;102290.78;10494402;28;20024;-70
2023/08/21 13:55:57;;;;;;;2.05;1.33;;;;;;;31.88;46.02;102286.72;10495326;28;20032;-70
2023/08/21 14:00:58;;;;;;;1.50;1.38;;;;;;;31.55;45.92;102293.44;10495636;28;20048;-70
2023/08/21 14:05:58;;;;;;;2.47;2.10;;;;;;;31.49;46.47;102287.97;10494298;28;20171;-70
2023/08/21 14:10:59;;;;;;;2.92;2.03;;;;;;;31.32;47.03;102275.63;10493530;28;20400;-70
2023/08/21 14:16:00;;;;;;;2.67;2.05;;;;;;;31.19;46.78;102264.06;10495833;28;20480;-70
2023/08/21 14:21:00;;;;;;;2.92;1.45;;;;;;;30.96;47.17;102257.44;10500237;28;20077;-70
2023/08/21 14:26:01;;;;;;;8.43;2.33;;;;;;;30.75;46.85;102256.84;10503356;28;20457;-70
2023/08/21 14:31:02;;;;;;;1.77;1.52;;;;;;;30.57;46.41;102249.31;10502152;28;20033;-70
2023/08/21 14:36:02;;;;;;;4.68;2.03;;;;;;;30.37;47.25;102252.34;10503057;28;20037;-70
2023/08/21 14:41:03;;;;;;;2.88;2.10;;;;;;;30.22;46.55;102240.25;10500950;28;20119;-70
2023/08/21 14:46:04;;;;;;;2.85;1.77;;;;;;;30.08;47.75;102239.25;10500900;28;20056;-70
2023/08/21 14:51:04;;;;;;;4.53;1.63;;;;;;;29.85;48.43;102219.41;10500421;28;20028;-70
2023/08/21 14:56:05;;;;;;;2.08;1.95;;;;;;;29.82;48.67;102224.75;10501048;28;20048;-70
2023/08/21 15:01:06;;;;;;;7.72;2.78;;;;;;;29.50;48.47;102216.97;10501888;28;20040;-70
2023/08/21 15:06:07;;;;;;;4.75;2.30;;;;;;;28.98;49.09;102205.38;10500718;28;20060;-70
2023/08/21 15:11:08;;;;;;;2.85;1.60;;;;;;;28.07;50.26;102218.66;10501684;28;20368;-70
2023/08/21 15:16:10;;;;;;;1.73;1.63;;;;;;;27.45;50.26;102201.25;10502027;28;20045;-69
2023/08/21 15:21:11;;;;;;;2.25;1.88;;;;;;;26.90;50.89;102197.34;10516287;28;20044;-70
2023/08/21 15:26:11;;;;;;;3.45;1.67;;;;;;;26.27;51.41;102202.16;10499407;28;20067;-70
2023/08/21 15:31:12;;;;;;;5.00;1.60;;;;;;;25.78;51.41;102210.72;10499500;28;20119;-69
2023/08/21 15:36:13;;;;;;;2.03;1.90;;;;;;;25.39;52.43;102195.22;10499082;28;20032;-70
2023/08/21 15:41:13;;;;;;;6.82;2.13;;;;;;;25.12;52.51;102203.59;10499868;28;20033;-70
2023/08/21 15:46:14;;;;;;;3.38;2.10;;;;;;;24.75;52.69;102209.84;10498591;28;20582;-69
2023/08/21 15:51:15;;;;;;;2.85;2.10;;;;;;;24.43;53.69;102201.47;10499969;28;20094;-70
2023/08/21 15:56:16;;;;;;;3.00;1.65;;;;;;;24.25;53.06;102197.09;10500611;28;20104;-69
2023/08/21 16:01:17;;;;;;;6.95;1.98;;;;;;;24.01;53.37;102196.50;10497315;28;20033;-69
2023/08/21 16:06:17;;;;;;;3.13;2.28;;;;;;;23.92;54.63;102203.56;10498768;28;20225;-69
2023/08/21 16:11:18;;;;;;;1.92;1.80;;;;;;;23.85;55.15;102194.63;10498639;28;20427;-69
2023/08/21 16:16:18;;;;;;;3.20;2.67;;;;;;;23.67;55.58;102192.94;10497844;28;20075;-69
2023/08/21 16:21:19;;;;;;;4.20;1.92;;;;;;;23.58;58.38;102192.56;10498430;28;20032;-69
2023/08/21 16:26:19;;;;;;;2.47;1.63;;;;;;;23.50;57.39;102179.16;10498866;28;20109;-69
2023/08/21 16:31:20;;;;;;;4.43;1.70;;;;;;;23.38;57.49;102176.47;10496370;28;20024;-70
2023/08/21 16:36:20;;;;;;;3.17;1.85;;;;;;;23.28;57.02;102173.53;10496417;28;20489;-69
2023/08/21 16:41:21;;;;;;;1.90;1.80;;;;;;;23.15;57.06;102165.59;10512628;28;20173;-69
2023/08/21 16:46:22;;;;;;;2.78;1.67;;;;;;;23.04;59.23;102164.59;10497206;28;20071;-69
2023/08/21 16:51:22;;;;;;;9.93;5.68;;;;;;;23.06;58.95;102164.34;10495819;28;20039;-69
2023/08/21 16:56:23;;;;;;;3.95;3.25;;;;;;;22.92;58.02;102156.34;10496112;28;20529;-69
2023/08/21 17:01:23;;;;;;;4.85;1.70;;;;;;;22.82;58.78;102158.94;10497086;28;20468;-69
2023/08/21 17:06:24;;;;;;;8.60;2.40;;;;;;;22.79;60.09;102167.72;10497523;28;20225;-69
2023/08/21 17:11:24;;;;;;;4.18;2.65;;;;;;;22.69;61.23;102162.00;10479395;28;20116;-69
2023/08/21 17:16:26;;;;;;;3.40;2.83;;;;;;;22.65;59.76;102153.38;10497189;28;20500;-69
2023/08/21 17:21:26;;;;;;;3.25;2.75;;;;;;;22.51;59.66;102152.00;10512500;28;20071;-69
2023/08/21 17:26:27;;;;;;;7.57;2.10;;;;;;;22.34;59.87;102146.44;10496397;28;20040;-69
2023/08/21 17:31:27;;;;;;;4.50;2.05;;;;;;;22.25;61.43;102142.41;10495762;28;20115;-69
2023/08/21 17:36:28;;;;;;;2.67;1.50;;;;;;;22.15;61.20;102142.16;10479052;28;20036;-69
2023/08/21 17:41:28;;;;;;;1.98;1.75;;;;;;;22.10;61.60;102128.25;10494649;28;20466;-69
2023/08/21 17:46:29;;;;;;;2.63;2.25;;;;;;;21.98;61.47;102140.16;10494883;28;20468;-69
2023/08/21 17:51:30;;;;;;;5.68;2.38;;;;;;;21.86;61.37;102139.38;10496200;28;20444;-69
2023/08/21 17:56:31;;;;;;;6.13;2.38;;;;;;;21.71;62.50;102137.09;10504865;28;20490;-69
2023/08/21 18:01:32;;;;;;;4.45;1.92;;;;;;;21.60;62.42;102140.69;10503636;28;20514;-69
2023/08/21 18:06:33;;;;;;;5.07;2.00;;;;;;;21.51;62.62;102139.41;10503216;28;20044;-69
2023/08/21 18:11:34;;;;;;;3.03;2.03;;;;;;;21.36;63.71;102145.41;10518474;28;20511;-69
2023/08/21 18:16:37;;;;;;;2.17;1.88;;;;;;;21.26;63.67;102145.13;10502198;28;20488;-69
2023/08/21 18:21:38;;;;;;;6.22;2.75;;;;;;;21.11;63.87;102149.16;10502390;28;20438;-69
2023/08/21 18:26:41;;;;;;;9.43;2.35;;;;;;;20.98;64.36;102148.56;10503158;28;20091;-69
2023/08/21 18:31:41;;;;;;;19.48;2.80;;;;;;;20.84;64.78;102156.19;10500976;28;20047;-69
2023/08/21 18:36:45;;;;;;;6.57;1.77;;;;;;;20.69;65.21;102148.38;10501943;28;20124;-69
2023/08/21 18:41:45;;;;;;;4.80;2.42;;;;;;;20.54;65.73;102134.19;10500588;28;20126;-69
2023/08/21 18:52:58;;;;;;;2.05;1.95;;;;;;;24.70;67.30;102145.28;10360664;28;1406283;-54
2023/08/21 18:58:01;;;;;;;2.38;1.72;;;;;;;25.68;65.79;102148.53;9511568;28;10001542;-51
2023/08/21 19:08:03;;;;;;;2.80;2.55;;;;;;;24.76;62.71;102153.38;10582837;27;1594199;-70
2023/08/21 19:13:06;;;;;;;9.13;3.47;;;;;;;22.51;67.08;102166.63;10362589;28;20049;-74
2023/08/21 19:18:07;;;;;;;3.72;3.30;;;;;;;21.35;68.83;102160.25;10528120;28;20090;-73
2023/08/21 19:23:08;;;;;;;2.70;2.50;;;;;;;20.70;70.00;102162.97;10528228;28;20034;-72
2023/08/21 19:28:09;;;;;;;3.22;3.03;;;;;;;20.17;70.35;102154.34;10527002;28;20443;-70
2023/08/21 19:33:14;;;;;;;3.92;3.13;;;;;;;19.85;71.34;102161.94;10479254;28;20456;-71
2023/08/21 19:38:20;;;;;;;7.18;2.97;;;;;;;19.61;72.00;102163.63;10526674;28;20055;-70
2023/08/21 19:43:27;;;;;;;3.40;3.10;;;;;;;19.47;72.91;102156.59;10511303;28;20062;-70
2023/08/21 19:48:28;;;;;;;3.35;2.22;;;;;;;19.28;73.04;102156.53;10527100;28;20031;-70
2023/08/21 19:53:29;;;;;;;11.50;2.92;;;;;;;19.12;73.77;102170.84;10512174;28;20075;-70
2023/08/21 19:58:32;;;;;;;7.50;3.30;;;;;;;19.05;74.97;102162.66;10484622;28;20080;-70
2023/08/21 20:03:36;;;;;;;5.78;4.13;;;;;;;18.94;75.59;102165.28;10484608;28;20029;-70
2023/08/21 20:08:39;;;;;;;4.78;3.25;;;;;;;18.85;75.98;102163.84;10516366;28;20032;-70
2023/08/21 20:13:44;;;;;;;10.40;3.30;;;;;;;18.71;76.67;102166.66;10505134;28;20039;-73
2023/08/21 20:18:45;;;;;;;4.32;3.63;;;;;;;18.60;77.03;102159.13;10461644;28;20487;-70
2023/08/21 20:23:46;;;;;;;6.45;3.63;;;;;;;18.59;78.13;102158.28;10484572;28;20067;-70
2023/08/21 20:28:47;;;;;;;3.08;2.83;;;;;;;18.63;78.98;102158.69;10405690;28;20098;-71
2023/08/21 20:33:50;;;;;;;9.57;5.18;;;;;;;18.69;79.68;102154.22;10439332;28;20152;-70
2023/08/21 20:38:51;;;;;;;3.65;3.13;;;;;;;18.64;82.12;102148.56;10455145;28;20037;-71
2023/08/21 20:43:55;;;;;;;3.75;3.45;;;;;;;18.62;82.44;102146.03;10456162;28;20037;-70
2023/08/21 20:49:18;;;;;;;11.93;4.18;;;;;;;18.65;83.61;102145.59;10456804;28;20040;-70
2023/08/21 20:54:23;;;;;;;14.30;3.88;;;;;;;18.64;83.14;102141.19;10454752;28;20110;-70
2023/08/21 20:59:24;;;;;;;3.60;3.20;;;;;;;18.62;82.88;102140.56;10455705;28;20397;-70
2023/08/21 21:04:28;;;;;;;3.75;3.38;;;;;;;18.56;83.62;102139.53;10454312;28;20064;-70
2023/08/21 21:09:32;;;;;;;5.03;2.97;;;;;;;18.51;83.71;102135.78;10454858;28;20036;-70
2023/08/21 21:14:33;;;;;;;3.63;3.33;;;;;;;18.50;84.02;102143.16;10454005;28;20037;-70
2023/08/21 21:19:37;;;;;;;4.90;4.18;;;;;;;18.47;84.20;102145.50;10453816;28;20029;-70
2023/08/21 21:24:38;;;;;;;6.57;4.60;;;;;;;18.44;85.11;102157.75;10452993;28;20045;-70
2023/08/21 21:29:41;;;;;;;6.68;4.57;;;;;;;18.45;85.43;102153.94;10452665;28;20404;-70
2023/08/21 21:34:48;;;;;;;8.65;4.93;;;;;;;18.49;85.73;102143.38;10456414;28;20439;-70
2023/08/21 21:39:49;;;;;;;6.93;5.28;;;;;;;18.47;85.65;102146.31;10437802;28;20039;-70
2023/08/21 21:44:53;;;;;;;7.20;4.95;;;;;;;18.53;86.03;102148.19;10476438;28;20040;-70
2023/08/21 21:49:54;;;;;;;7.38;5.68;;;;;;;18.55;86.52;102156.22;10494275;28;20128;-70
2023/08/21 21:54:55;;;;;;;8.90;5.22;;;;;;;18.54;86.61;102163.59;10388047;28;20048;-70
2023/08/21 21:59:58;;;;;;;5.22;4.55;;;;;;;18.54;87.08;102158.13;10494610;28;20036;-70
2023/08/21 22:04:59;;;;;;;13.30;5.25;;;;;;;18.48;87.47;102153.50;10494846;28;20049;-70
2023/08/21 22:10:03;;;;;;;8.45;5.72;;;;;;;18.47;87.68;102170.19;10492804;28;20037;-70
2023/08/21 22:15:05;;;;;;;11.52;7.15;;;;;;;18.51;88.09;102157.72;10493531;28;20032;-70
2023/08/21 22:20:07;;;;;;;14.05;5.50;;;;;;;18.64;88.63;102159.56;10476923;28;20118;-70
2023/08/21 22:25:09;;;;;;;20.75;13.57;;;;;;;18.73;89.00;102153.59;10477061;28;20118;-70
2023/08/21 22:30:15;;;;;;;5.70;5.13;;;;;;;18.80;89.69;102118.72;10493681;28;20035;-71
2023/08/21 22:35:16;;;;;;;6.00;3.88;;;;;;;18.81;90.12;102128.63;10493166;28;20028;-70
2023/08/21 22:40:17;;;;;;;5.70;4.60;;;;;;;18.78;91.01;102109.03;10491374;28;20127;-70
2023/08/21 22:45:18;;;;;;;5.65;4.43;;;;;;;18.80;98.50;102132.44;10493313;28;20028;-70
2023/08/21 22:50:19;;;;;;;14.52;4.95;;;;;;;18.84;95.70;102115.53;10492638;28;20032;-70
2023/08/21 22:55:20;;;;;;;8.57;4.28;;;;;;;18.83;94.52;102119.34;10492621;28;20040;-70
2023/08/21 23:00:21;;;;;;;6.35;3.53;;;;;;;18.77;95.34;102099.13;10493880;28;20115;-70
2023/08/21 23:05:22;;;;;;;10.68;4.50;;;;;;;18.66;97.99;102078.69;10493293;28;20063;-70
2023/08/21 23:10:23;;;;;;;13.63;4.15;;;;;;;18.62;97.01;102076.59;10492862;28;20037;-70
2023/08/21 23:15:24;;;;;;;9.82;4.10;;;;;;;18.54;100.00;102073.09;10493445;28;20039;-70
2023/08/21 23:20:25;;;;;;;5.40;4.70;;;;;;;18.52;99.78;102058.75;10492936;28;20385;-70